createdAt,value
2022-07-30T00:00:33.334Z,23.85
2022-07-30T00:01:33.346Z,23.82
2022-07-30T00:02:33.282Z,23.82
2022-07-30T00:03:33.341Z,23.71
2022-07-30T00:04:33.288Z,23.79
2022-07-30T00:05:33.247Z,23.79
2022-07-30T00:06:33.235Z,23.76
2022-07-30T00:07:33.224Z,23.74
2022-07-30T00:08:33.215Z,23.73
2022-07-30T00:09:34.478Z,23.71
2022-07-30T00:10:33.192Z,23.70
2022-07-30T00:11:33.178Z,23.74
2022-07-30T00:12:33.165Z,23.71
2022-07-30T00:13:36.539Z,23.79
2022-07-30T00:14:33.145Z,23.73
2022-07-30T00:15:33.139Z,23.71
2022-07-30T00:16:33.171Z,23.67
2022-07-30T00:17:33.116Z,23.73
2022-07-30T00:18:33.140Z,23.66
2022-07-30T00:19:33.095Z,23.56
2022-07-30T00:20:33.087Z,23.69
2022-07-30T00:21:38.689Z,23.59
2022-07-30T00:22:34.055Z,23.59
2022-07-30T00:23:33.071Z,23.59
2022-07-30T00:24:33.034Z,23.64
2022-07-30T00:25:33.027Z,23.63
2022-07-30T00:26:33.016Z,23.55
2022-07-30T00:27:33.006Z,23.56
2022-07-30T00:28:33.025Z,23.56
2022-07-30T00:29:32.995Z,23.56
2022-07-30T00:30:33.021Z,23.51
2022-07-30T00:31:32.967Z,23.48
2022-07-30T00:32:32.953Z,23.44
2022-07-30T00:33:32.948Z,23.44
2022-07-30T00:34:32.951Z,23.44
2022-07-30T00:35:32.916Z,23.51
2022-07-30T00:36:32.904Z,23.51
2022-07-30T00:37:32.896Z,23.44
2022-07-30T00:38:32.922Z,23.42
2022-07-30T00:39:32.874Z,23.36
2022-07-30T00:40:32.870Z,23.36
2022-07-30T00:41:32.856Z,23.36
2022-07-30T00:42:32.838Z,23.36
2022-07-30T00:43:32.825Z,23.36
2022-07-30T00:44:32.857Z,23.34
2022-07-30T00:45:32.866Z,23.29
2022-07-30T00:46:32.799Z,23.29
2022-07-30T00:47:32.784Z,23.31
2022-07-30T00:48:32.807Z,23.29
2022-07-30T00:49:32.757Z,23.29
2022-07-30T00:50:32.758Z,23.29
2022-07-30T00:51:32.742Z,23.26
2022-07-30T00:52:32.731Z,23.31
2022-07-30T00:53:32.756Z,23.34
2022-07-30T00:54:32.704Z,23.29
2022-07-30T00:55:32.700Z,23.31
2022-07-30T00:56:32.689Z,23.26
2022-07-30T00:57:32.676Z,23.22
2022-07-30T00:58:32.694Z,23.22
2022-07-30T00:59:32.653Z,23.22
2022-07-30T01:00:32.641Z,23.15
2022-07-30T01:01:32.708Z,23.15
2022-07-30T01:02:32.710Z,23.14
2022-07-30T01:03:32.637Z,23.18
2022-07-30T01:04:32.599Z,23.13
2022-07-30T01:05:32.581Z,23.10
2022-07-30T01:06:32.574Z,23.08
2022-07-30T01:07:32.601Z,23.07
2022-07-30T01:08:32.554Z,23.08
2022-07-30T01:09:32.541Z,23.06
2022-07-30T01:10:32.534Z,23.06
2022-07-30T01:11:32.520Z,23.08
2022-07-30T01:12:32.510Z,23.03
2022-07-30T01:13:32.531Z,23.01
2022-07-30T01:14:32.489Z,23.01
2022-07-30T01:15:32.479Z,22.96
2022-07-30T01:16:32.583Z,22.98
2022-07-30T01:17:32.459Z,22.99
2022-07-30T01:18:32.471Z,22.95
2022-07-30T01:19:32.438Z,22.95
2022-07-30T01:20:32.424Z,23.03
2022-07-30T01:21:32.409Z,22.89
2022-07-30T01:22:32.401Z,22.98
2022-07-30T01:23:32.415Z,22.88
2022-07-30T01:24:32.375Z,22.86
2022-07-30T01:25:32.385Z,22.80
2022-07-30T01:26:32.356Z,22.86
2022-07-30T01:27:32.356Z,22.89
2022-07-30T01:28:32.362Z,22.85
2022-07-30T01:29:32.328Z,22.78
2022-07-30T01:30:32.314Z,22.81
2022-07-30T01:31:32.368Z,22.89
2022-07-30T01:32:32.289Z,22.89
2022-07-30T01:33:32.311Z,22.83
2022-07-30T01:34:32.279Z,22.77
2022-07-30T01:35:32.272Z,22.77
2022-07-30T01:36:32.249Z,22.77
2022-07-30T01:37:32.237Z,22.67
2022-07-30T01:38:34.820Z,22.68
2022-07-30T01:39:32.216Z,22.67
2022-07-30T01:40:32.212Z,22.67
2022-07-30T01:41:32.197Z,22.74
2022-07-30T01:42:32.183Z,22.70
2022-07-30T01:43:32.168Z,22.66
2022-07-30T01:44:32.192Z,22.67
2022-07-30T01:45:32.320Z,22.64
2022-07-30T01:46:33.137Z,22.66
2022-07-30T01:47:32.129Z,22.64
2022-07-30T01:48:32.143Z,22.64
2022-07-30T01:49:32.117Z,22.61
2022-07-30T01:50:32.097Z,22.59
2022-07-30T01:51:33.329Z,22.55
2022-07-30T01:52:33.099Z,22.61
2022-07-30T01:53:32.062Z,22.55
2022-07-30T01:54:32.053Z,22.53
2022-07-30T01:55:32.043Z,22.51
2022-07-30T01:56:32.032Z,22.55
2022-07-30T01:57:32.045Z,22.59
2022-07-30T01:58:32.022Z,22.48
2022-07-30T01:59:32.001Z,22.49
2022-07-30T02:00:31.989Z,22.46
2022-07-30T02:01:32.043Z,22.48
2022-07-30T02:02:32.011Z,22.48
2022-07-30T02:03:32.011Z,22.48
2022-07-30T02:04:31.948Z,22.44
2022-07-30T02:05:31.933Z,22.40
2022-07-30T02:06:31.923Z,22.44
2022-07-30T02:07:31.915Z,22.34
2022-07-30T02:08:31.926Z,22.37
2022-07-30T02:09:31.897Z,22.36
2022-07-30T02:10:31.883Z,22.36
2022-07-30T02:11:31.874Z,22.33
2022-07-30T02:12:31.887Z,22.30
2022-07-30T02:13:31.855Z,22.36
2022-07-30T02:14:31.841Z,22.37
2022-07-30T02:15:31.826Z,22.34
2022-07-30T02:16:31.861Z,22.31
2022-07-30T02:17:39.468Z,22.33
2022-07-30T02:18:32.795Z,22.30
2022-07-30T02:19:32.943Z,22.36
2022-07-30T02:20:31.778Z,22.22
2022-07-30T02:21:36.646Z,22.25
2022-07-30T02:22:32.780Z,22.33
2022-07-30T02:23:31.743Z,22.22
2022-07-30T02:24:31.733Z,22.23
2022-07-30T02:25:31.720Z,22.23
2022-07-30T02:26:31.716Z,22.25
2022-07-30T02:27:31.766Z,22.19
2022-07-30T02:28:31.690Z,22.16
2022-07-30T02:29:31.679Z,22.16
2022-07-30T02:30:31.666Z,22.16
2022-07-30T02:31:31.747Z,22.18
2022-07-30T02:32:31.748Z,22.18
2022-07-30T02:33:31.631Z,22.15
2022-07-30T02:34:31.619Z,22.18
2022-07-30T02:35:31.636Z,22.09
2022-07-30T02:36:31.606Z,22.01
2022-07-30T02:37:42.895Z,22.19
2022-07-30T02:38:32.610Z,22.13
2022-07-30T02:39:31.569Z,22.04
2022-07-30T02:40:31.554Z,22.12
2022-07-30T02:41:31.550Z,22.06
2022-07-30T02:42:31.540Z,22.13
2022-07-30T02:43:35.470Z,22.12
2022-07-30T02:44:31.516Z,22.06
2022-07-30T02:45:31.514Z,22.03
2022-07-30T02:46:31.596Z,22.04
2022-07-30T02:47:31.487Z,22.04
2022-07-30T02:48:35.010Z,22.09
2022-07-30T02:49:31.462Z,22.04
2022-07-30T02:50:31.452Z,22.06
2022-07-30T02:51:31.441Z,22.06
2022-07-30T02:52:31.450Z,21.98
2022-07-30T02:53:31.417Z,22.03
2022-07-30T02:54:31.553Z,22.04
2022-07-30T02:55:31.398Z,21.97
2022-07-30T02:56:31.387Z,21.96
2022-07-30T02:57:31.407Z,21.98
2022-07-30T02:58:31.364Z,21.94
2022-07-30T02:59:31.354Z,21.97
2022-07-30T03:00:31.458Z,21.98
2022-07-30T03:01:31.425Z,21.91
2022-07-30T03:02:31.722Z,21.97
2022-07-30T03:03:31.314Z,22.00
2022-07-30T03:04:31.299Z,21.98
2022-07-30T03:05:31.284Z,21.90
2022-07-30T03:06:31.278Z,21.90
2022-07-30T03:07:31.297Z,21.91
2022-07-30T03:08:31.254Z,21.91
2022-07-30T03:09:50.752Z,21.91
2022-07-30T03:10:32.234Z,21.80
2022-07-30T03:11:31.225Z,21.88
2022-07-30T03:12:31.274Z,21.85
2022-07-30T03:13:31.204Z,21.91
2022-07-30T03:14:31.189Z,21.80
2022-07-30T03:15:31.206Z,21.75
2022-07-30T03:16:31.247Z,21.90
2022-07-30T03:17:31.159Z,21.91
2022-07-30T03:18:31.154Z,21.81
2022-07-30T03:19:31.138Z,21.80
2022-07-30T03:20:31.166Z,21.82
2022-07-30T03:21:31.120Z,21.80
2022-07-30T03:22:33.181Z,21.85
2022-07-30T03:23:31.095Z,21.77
2022-07-30T03:24:31.084Z,21.77
2022-07-30T03:25:31.159Z,21.82
2022-07-30T03:26:31.070Z,21.78
2022-07-30T03:27:31.048Z,21.77
2022-07-30T03:28:31.036Z,21.82
2022-07-30T03:29:31.026Z,21.74
2022-07-30T03:30:31.048Z,21.69
2022-07-30T03:31:36.448Z,21.75
2022-07-30T03:32:31.992Z,21.78
2022-07-30T03:33:38.770Z,21.77
2022-07-30T03:34:31.975Z,21.73
2022-07-30T03:35:31.373Z,21.73
2022-07-30T03:36:30.951Z,21.73
2022-07-30T03:37:30.943Z,21.80
2022-07-30T03:38:30.932Z,21.73
2022-07-30T03:39:30.921Z,21.74
2022-07-30T03:40:30.936Z,21.65
2022-07-30T03:41:30.903Z,21.67
2022-07-30T03:42:30.897Z,21.59
2022-07-30T03:43:33.403Z,21.69
2022-07-30T03:44:30.864Z,21.65
2022-07-30T03:45:30.884Z,21.60
2022-07-30T03:46:30.894Z,21.66
2022-07-30T03:47:30.839Z,21.58
2022-07-30T03:48:30.819Z,21.58
2022-07-30T03:49:30.995Z,21.58
2022-07-30T03:50:30.799Z,21.59
2022-07-30T03:51:33.228Z,21.56
2022-07-30T03:52:30.782Z,21.60
2022-07-30T03:53:30.770Z,21.62
2022-07-30T03:54:30.760Z,21.58
2022-07-30T03:55:30.785Z,21.62
2022-07-30T03:56:30.744Z,21.58
2022-07-30T03:57:30.727Z,21.58
2022-07-30T03:58:35.795Z,21.59
2022-07-30T03:59:31.739Z,21.56
2022-07-30T04:00:30.688Z,21.59
2022-07-30T04:01:30.718Z,21.55
2022-07-30T04:02:30.675Z,21.53
2022-07-30T04:03:30.832Z,21.50
2022-07-30T04:04:30.693Z,21.56
2022-07-30T04:05:37.713Z,21.45
2022-07-30T04:06:31.626Z,21.53
2022-07-30T04:07:30.616Z,21.47
2022-07-30T04:08:30.600Z,21.51
2022-07-30T04:09:30.598Z,21.44
2022-07-30T04:10:30.627Z,21.45
2022-07-30T04:11:41.402Z,21.47
2022-07-30T04:12:31.560Z,21.44
2022-07-30T04:13:30.558Z,21.38
2022-07-30T04:14:30.606Z,21.47
2022-07-30T04:16:40.235Z,21.50
2022-07-30T04:16:40.344Z,21.44
2022-07-30T04:17:31.590Z,21.45
2022-07-30T04:18:30.500Z,21.44
2022-07-30T04:19:30.486Z,21.43
2022-07-30T04:20:30.521Z,21.44
2022-07-30T04:21:30.466Z,21.45
2022-07-30T04:22:30.454Z,21.45
2022-07-30T04:23:30.447Z,21.47
2022-07-30T04:24:30.461Z,21.47
2022-07-30T04:25:30.421Z,21.40
2022-07-30T04:26:30.420Z,21.43
2022-07-30T04:27:30.399Z,21.41
2022-07-30T04:28:30.392Z,21.40
2022-07-30T04:29:30.414Z,21.35
2022-07-30T04:30:30.366Z,21.37
2022-07-30T04:31:30.412Z,21.38
2022-07-30T04:32:30.346Z,21.38
2022-07-30T04:33:30.332Z,21.41
2022-07-30T04:34:30.368Z,21.34
2022-07-30T04:35:51.557Z,21.38
2022-07-30T04:36:31.302Z,21.37
2022-07-30T04:37:30.290Z,21.30
2022-07-30T04:38:30.303Z,21.32
2022-07-30T04:39:30.273Z,21.37
2022-07-30T04:40:30.257Z,21.26
2022-07-30T04:41:33.539Z,21.35
2022-07-30T04:42:31.235Z,21.34
2022-07-30T04:43:30.401Z,21.44
2022-07-30T04:44:30.217Z,21.28
2022-07-30T04:45:30.208Z,21.34
2022-07-30T04:46:30.227Z,21.28
2022-07-30T04:47:30.185Z,21.44
2022-07-30T04:48:30.177Z,21.41
2022-07-30T04:49:30.229Z,21.32
2022-07-30T04:50:30.150Z,21.30
2022-07-30T04:51:30.139Z,21.30
2022-07-30T04:52:30.130Z,21.30
2022-07-30T04:53:30.112Z,21.30
2022-07-30T04:54:30.145Z,21.34
2022-07-30T04:55:30.093Z,21.34
2022-07-30T04:56:30.085Z,21.29
2022-07-30T04:57:30.071Z,21.37
2022-07-30T04:58:30.063Z,21.30
2022-07-30T04:59:30.082Z,21.29
2022-07-30T05:00:32.543Z,21.37
2022-07-30T05:01:39.257Z,21.30
2022-07-30T05:02:31.022Z,21.35
2022-07-30T05:03:30.017Z,21.35
2022-07-30T05:04:30.048Z,21.37
2022-07-30T05:05:30.086Z,21.34
2022-07-30T05:06:29.979Z,21.29
2022-07-30T05:07:29.967Z,21.30
2022-07-30T05:08:29.969Z,21.35
2022-07-30T05:09:29.951Z,21.30
2022-07-30T05:10:29.963Z,21.32
2022-07-30T05:11:29.923Z,21.29
2022-07-30T05:12:29.913Z,21.30
2022-07-30T05:13:34.617Z,21.32
2022-07-30T05:14:30.889Z,21.30
2022-07-30T05:15:37.395Z,21.34
2022-07-30T05:16:30.959Z,21.35
2022-07-30T05:17:29.855Z,21.30
2022-07-30T05:18:29.882Z,21.35
2022-07-30T05:19:29.833Z,21.30
2022-07-30T05:20:29.826Z,21.28
2022-07-30T05:21:29.809Z,21.35
2022-07-30T05:22:29.801Z,21.37
2022-07-30T05:23:29.790Z,21.40
2022-07-30T05:24:29.816Z,21.35
2022-07-30T05:25:29.773Z,21.37
2022-07-30T05:26:29.758Z,21.38
2022-07-30T05:27:29.750Z,21.34
2022-07-30T05:28:29.742Z,21.28
2022-07-30T05:29:29.761Z,21.37
2022-07-30T05:30:29.717Z,21.45
2022-07-30T05:31:29.829Z,21.40
2022-07-30T05:32:29.694Z,21.41
2022-07-30T05:33:40.828Z,21.45
2022-07-30T05:34:30.706Z,21.45
2022-07-30T05:35:29.664Z,21.41
2022-07-30T05:36:29.657Z,21.40
2022-07-30T05:37:29.644Z,21.40
2022-07-30T05:38:29.627Z,21.43
2022-07-30T05:39:29.646Z,21.44
2022-07-30T05:40:29.606Z,21.44
2022-07-30T05:41:32.080Z,21.44
2022-07-30T05:42:29.589Z,21.41
2022-07-30T05:43:29.624Z,21.45
2022-07-30T05:44:29.564Z,21.44
2022-07-30T05:45:29.556Z,21.43
2022-07-30T05:46:29.624Z,21.45
2022-07-30T05:47:29.533Z,21.45
2022-07-30T05:48:29.522Z,21.56
2022-07-30T05:49:29.556Z,21.53
2022-07-30T05:50:29.501Z,21.56
2022-07-30T05:51:29.487Z,21.58
2022-07-30T05:52:29.478Z,21.56
2022-07-30T05:53:29.470Z,21.56
2022-07-30T05:54:29.460Z,21.65
2022-07-30T05:55:29.515Z,21.60
2022-07-30T05:56:29.437Z,21.53
2022-07-30T05:57:29.425Z,21.65
2022-07-30T05:58:29.416Z,21.63
2022-07-30T05:59:29.439Z,21.65
2022-07-30T06:00:29.434Z,21.62
2022-07-30T06:01:29.432Z,21.66
2022-07-30T06:02:29.369Z,21.63
2022-07-30T06:03:29.359Z,21.69
2022-07-30T06:04:29.451Z,21.65
2022-07-30T06:05:29.342Z,21.67
2022-07-30T06:06:29.331Z,21.71
2022-07-30T06:07:29.319Z,21.71
2022-07-30T06:08:29.351Z,21.71
2022-07-30T06:09:36.385Z,21.71
2022-07-30T06:10:30.289Z,21.69
2022-07-30T06:11:29.271Z,21.73
2022-07-30T06:12:29.267Z,21.77
2022-07-30T06:13:29.398Z,21.67
2022-07-30T06:14:29.243Z,21.77
2022-07-30T06:15:29.224Z,21.77
2022-07-30T06:16:29.221Z,21.82
2022-07-30T06:17:29.243Z,21.88
2022-07-30T06:18:29.198Z,21.90
2022-07-30T06:19:29.191Z,21.90
2022-07-30T06:20:29.182Z,21.90
2022-07-30T06:21:29.181Z,21.91
2022-07-30T06:22:30.203Z,21.90
2022-07-30T06:23:29.141Z,21.90
2022-07-30T06:24:29.225Z,21.90
2022-07-30T06:25:29.120Z,21.97
2022-07-30T06:26:29.106Z,21.94
2022-07-30T06:27:31.671Z,21.97
2022-07-30T06:28:37.601Z,21.93
2022-07-30T06:29:30.081Z,21.96
2022-07-30T06:30:31.086Z,21.94
2022-07-30T06:31:29.085Z,22.03
2022-07-30T06:32:29.070Z,22.04
2022-07-30T06:33:29.037Z,22.01
2022-07-30T06:34:29.026Z,22.07
2022-07-30T06:35:29.009Z,22.12
2022-07-30T06:36:29.005Z,22.16
2022-07-30T06:38:00.618Z,22.06
2022-07-30T06:38:29.980Z,21.94
2022-07-30T06:39:56.637Z,22.12
2022-07-30T06:40:29.997Z,21.97
2022-07-30T06:41:28.944Z,22.16
2022-07-30T06:42:29.017Z,22.19
2022-07-30T06:43:28.923Z,22.16
2022-07-30T06:44:28.912Z,22.16
2022-07-30T06:45:28.972Z,22.23
2022-07-30T06:46:29.018Z,22.28
2022-07-30T06:47:28.883Z,22.15
2022-07-30T06:48:28.873Z,22.28
2022-07-30T06:49:28.858Z,22.27
2022-07-30T06:50:28.853Z,22.31
2022-07-30T06:51:28.870Z,22.28
2022-07-30T06:52:28.824Z,22.30
2022-07-30T06:53:28.818Z,22.31
2022-07-30T06:54:28.853Z,22.28
2022-07-30T06:55:28.796Z,22.41
2022-07-30T06:56:28.784Z,22.40
2022-07-30T06:57:28.771Z,22.38
2022-07-30T06:58:28.767Z,22.38
2022-07-30T06:59:28.751Z,22.34
2022-07-30T07:00:28.784Z,22.40
2022-07-30T07:01:28.782Z,22.43
2022-07-30T07:02:28.719Z,22.41
2022-07-30T07:03:39.804Z,22.51
2022-07-30T07:04:29.756Z,22.48
2022-07-30T07:05:28.727Z,22.49
2022-07-30T07:06:28.678Z,22.52
2022-07-30T07:07:41.217Z,22.49
2022-07-30T07:08:29.662Z,22.56
2022-07-30T07:09:28.647Z,22.55
2022-07-30T07:10:28.641Z,22.53
2022-07-30T07:11:28.779Z,22.58
2022-07-30T07:12:28.613Z,22.66
2022-07-30T07:13:28.603Z,22.64
2022-07-30T07:14:28.593Z,22.68
2022-07-30T07:15:36.233Z,22.71
2022-07-30T07:16:29.658Z,22.73
2022-07-30T07:17:28.555Z,22.74
2022-07-30T07:18:28.552Z,22.78
2022-07-30T07:20:00.237Z,22.83
2022-07-30T07:20:29.571Z,22.91
2022-07-30T07:21:28.513Z,22.88
2022-07-30T07:22:28.513Z,22.91
2022-07-30T07:23:41.461Z,22.81
2022-07-30T07:24:29.484Z,22.88
2022-07-30T07:25:28.505Z,22.98
2022-07-30T07:26:28.468Z,22.96
2022-07-30T07:27:28.452Z,22.96
2022-07-30T07:28:33.457Z,22.98
2022-07-30T07:29:29.590Z,23.07
2022-07-30T07:30:28.487Z,23.08
2022-07-30T07:32:07.116Z,23.11
2022-07-30T07:32:29.403Z,23.08
2022-07-30T07:33:28.425Z,23.14
2022-07-30T07:34:28.382Z,23.13
2022-07-30T07:35:28.369Z,23.22
2022-07-30T07:36:28.362Z,23.22
2022-07-30T07:37:28.357Z,23.22
2022-07-30T07:38:28.365Z,23.34
2022-07-30T07:39:28.329Z,23.25
2022-07-30T07:40:28.324Z,23.26
2022-07-30T07:41:28.302Z,23.42
2022-07-30T07:42:28.291Z,23.29
2022-07-30T07:43:28.313Z,23.42
2022-07-30T07:44:28.272Z,23.48
2022-07-30T07:45:28.267Z,23.36
2022-07-30T07:46:34.042Z,23.41
2022-07-30T07:47:29.267Z,23.44
2022-07-30T07:48:28.226Z,23.49
2022-07-30T07:49:28.245Z,23.61
2022-07-30T07:50:28.211Z,23.56
2022-07-30T07:51:45.124Z,23.61
2022-07-30T07:52:29.222Z,23.63
2022-07-30T07:53:28.172Z,23.70
2022-07-30T07:54:28.165Z,23.71
2022-07-30T07:55:28.198Z,23.69
2022-07-30T07:56:28.138Z,23.73
2022-07-30T07:57:28.127Z,23.73
2022-07-30T07:58:28.122Z,23.70
2022-07-30T07:59:36.067Z,23.79
2022-07-30T08:00:29.155Z,23.76
2022-07-30T08:01:28.166Z,23.79
2022-07-30T08:02:28.145Z,23.91
2022-07-30T08:03:28.062Z,23.86
2022-07-30T08:04:28.052Z,23.91
2022-07-30T08:06:00.849Z,23.91
2022-07-30T08:06:29.059Z,24.00
2022-07-30T08:07:28.024Z,24.07
2022-07-30T08:08:28.009Z,24.03
2022-07-30T08:09:27.998Z,24.04
2022-07-30T08:10:29.181Z,24.15
2022-07-30T08:11:27.977Z,24.10
2022-07-30T08:12:27.968Z,24.19
2022-07-30T08:13:52.683Z,24.11
2022-07-30T08:14:28.945Z,24.19
2022-07-30T08:15:27.930Z,24.26
2022-07-30T08:16:29.660Z,24.28
2022-07-30T08:17:27.910Z,24.33
2022-07-30T08:18:27.902Z,24.36
2022-07-30T08:19:27.892Z,24.26
2022-07-30T08:20:33.226Z,24.40
2022-07-30T08:21:28.867Z,24.43
2022-07-30T08:22:27.854Z,24.36
2022-07-30T08:23:27.847Z,24.48
2022-07-30T08:24:27.875Z,24.56
2022-07-30T08:25:27.824Z,24.51
2022-07-30T08:26:27.816Z,24.60
2022-07-30T08:27:27.802Z,24.60
2022-07-30T08:28:35.675Z,24.56
2022-07-30T08:29:28.814Z,24.60
2022-07-30T08:30:27.850Z,24.66
2022-07-30T08:31:27.764Z,24.63
2022-07-30T08:32:27.757Z,24.66
2022-07-30T08:33:27.737Z,24.75
2022-07-30T08:34:27.730Z,24.74
2022-07-30T08:35:27.743Z,24.76
2022-07-30T08:36:27.712Z,24.78
2022-07-30T08:37:27.703Z,24.82
2022-07-30T08:38:27.685Z,24.86
2022-07-30T08:39:27.678Z,24.90
2022-07-30T08:40:27.698Z,24.93
2022-07-30T08:41:27.663Z,24.89
2022-07-30T08:42:27.646Z,24.93
2022-07-30T08:43:27.639Z,24.89
2022-07-30T08:44:27.624Z,25.00
2022-07-30T08:45:34.805Z,25.08
2022-07-30T08:46:28.602Z,25.09
2022-07-30T08:47:27.590Z,25.11
2022-07-30T08:48:27.575Z,25.12
2022-07-30T08:49:27.571Z,25.15
2022-07-30T08:50:27.553Z,25.14
2022-07-30T08:51:27.577Z,25.16
2022-07-30T08:52:27.537Z,25.23
2022-07-30T08:53:27.532Z,25.21
2022-07-30T08:54:27.514Z,25.33
2022-07-30T08:55:27.531Z,25.30
2022-07-30T08:56:27.502Z,25.30
2022-07-30T08:57:27.489Z,25.31
2022-07-30T08:58:27.483Z,25.37
2022-07-30T08:59:59.882Z,25.41
2022-07-30T09:00:28.615Z,25.43
2022-07-30T09:01:27.446Z,25.45
2022-07-30T09:02:29.609Z,25.48
2022-07-30T09:03:27.421Z,25.45
2022-07-30T09:04:27.412Z,25.49
2022-07-30T09:05:27.401Z,25.45
2022-07-30T09:06:27.418Z,25.52
2022-07-30T09:07:27.380Z,25.59
2022-07-30T09:08:27.364Z,25.61
2022-07-30T09:09:27.361Z,25.66
2022-07-30T09:10:27.344Z,25.67
2022-07-30T09:11:27.366Z,25.71
2022-07-30T09:12:27.328Z,25.70
2022-07-30T09:13:27.316Z,25.75
2022-07-30T09:14:30.113Z,25.75
2022-07-30T09:15:27.292Z,25.74
2022-07-30T09:16:27.308Z,25.85
2022-07-30T09:17:31.226Z,25.81
2022-07-30T09:18:28.274Z,25.85
2022-07-30T09:19:27.246Z,25.90
2022-07-30T09:20:27.235Z,25.90
2022-07-30T09:21:27.275Z,25.96
2022-07-30T09:22:27.224Z,26.00
2022-07-30T09:23:27.205Z,26.01
2022-07-30T09:24:27.196Z,26.08
2022-07-30T09:25:27.188Z,26.08
2022-07-30T09:26:27.213Z,26.10
2022-07-30T09:27:27.162Z,26.24
2022-07-30T09:28:27.155Z,26.24
2022-07-30T09:29:27.145Z,26.26
2022-07-30T09:30:31.982Z,26.26
2022-07-30T09:32:27.106Z,26.31
2022-07-30T09:33:27.101Z,26.38
2022-07-30T09:34:27.091Z,26.48
2022-07-30T09:35:27.078Z,26.45
2022-07-30T09:36:27.105Z,26.39
2022-07-30T09:37:27.393Z,26.52
2022-07-30T09:38:27.046Z,26.48
2022-07-30T09:39:27.035Z,26.58
2022-07-30T09:40:32.369Z,26.63
2022-07-30T09:41:38.832Z,26.64
2022-07-30T09:42:28.001Z,26.71
2022-07-30T09:43:28.086Z,26.75
2022-07-30T09:44:26.981Z,26.76
2022-07-30T09:45:26.976Z,26.76
2022-07-30T09:46:27.961Z,26.75
2022-07-30T09:47:27.031Z,26.88
2022-07-30T09:48:26.941Z,26.80
2022-07-30T09:49:26.997Z,26.80
2022-07-30T09:50:30.030Z,26.82
2022-07-30T09:51:56.381Z,26.90
2022-07-30T09:52:29.048Z,26.90
2022-07-30T09:53:26.890Z,26.98
2022-07-30T09:54:26.884Z,27.03
2022-07-30T09:55:26.867Z,27.08
2022-07-30T09:56:26.863Z,27.12
2022-07-30T09:57:28.203Z,27.07
2022-07-30T09:58:27.974Z,27.16
2022-07-30T09:59:26.835Z,27.08
2022-07-30T10:00:27.834Z,27.16
2022-07-30T10:01:49.967Z,27.19
2022-07-30T10:02:27.944Z,27.23
2022-07-30T10:03:34.124Z,27.27
2022-07-30T10:04:27.773Z,27.35
2022-07-30T10:05:26.761Z,27.35
2022-07-30T10:06:26.746Z,27.35
2022-07-30T10:07:28.605Z,27.35
2022-07-30T10:08:26.731Z,27.41
2022-07-30T10:09:27.186Z,27.40
2022-07-30T10:10:26.731Z,27.45
2022-07-30T10:11:26.705Z,27.49
2022-07-30T10:12:28.597Z,27.49
2022-07-30T10:13:30.945Z,27.54
2022-07-30T10:14:31.349Z,27.57
2022-07-30T10:15:26.670Z,27.63
2022-07-30T10:16:26.646Z,27.61
2022-07-30T10:17:26.674Z,27.70
2022-07-30T10:18:26.628Z,27.72
2022-07-30T10:19:39.510Z,27.76
2022-07-30T10:20:27.650Z,27.85
2022-07-30T10:21:26.623Z,27.87
2022-07-30T10:22:26.616Z,28.00
2022-07-30T10:23:27.294Z,28.03
2022-07-30T10:24:27.734Z,28.01
2022-07-30T10:25:28.003Z,28.15
2022-07-30T10:26:26.560Z,28.13
2022-07-30T10:27:26.593Z,28.24
2022-07-30T10:28:27.521Z,28.17
2022-07-30T10:29:33.465Z,28.32
2022-07-30T10:30:28.190Z,28.43
2022-07-30T10:31:46.927Z,28.46
2022-07-30T10:32:30.926Z,28.57
2022-07-30T10:33:36.673Z,28.59
2022-07-30T10:34:30.272Z,28.61
2022-07-30T10:35:34.279Z,28.62
2022-07-30T10:36:27.434Z,28.69
2022-07-30T10:37:26.459Z,28.72
2022-07-30T10:38:26.437Z,28.65
2022-07-30T10:39:26.412Z,28.72
2022-07-30T10:40:30.673Z,28.79
2022-07-30T10:41:44.368Z,28.86
2022-07-30T10:42:27.373Z,28.83
2022-07-30T10:43:31.425Z,28.84
2022-07-30T10:44:27.366Z,28.93
2022-07-30T10:45:26.366Z,29.00
2022-07-30T10:46:27.125Z,29.00
2022-07-30T10:47:33.403Z,29.09
2022-07-30T10:48:27.310Z,29.21
2022-07-30T10:49:26.324Z,29.21
2022-07-30T10:50:26.506Z,29.31
2022-07-30T10:51:34.701Z,29.29
2022-07-30T10:52:27.293Z,29.33
2022-07-30T10:53:29.431Z,29.44
2022-07-30T10:54:26.245Z,29.46
2022-07-30T10:55:36.461Z,29.50
2022-07-30T10:56:27.264Z,29.49
2022-07-30T10:57:32.712Z,29.59
2022-07-30T10:58:27.209Z,29.58
2022-07-30T10:59:29.007Z,29.59
2022-07-30T11:00:26.256Z,29.66
2022-07-30T11:01:26.179Z,29.58
2022-07-30T11:02:26.313Z,29.68
2022-07-30T11:03:40.722Z,29.71
2022-07-30T11:04:29.582Z,29.63
2022-07-30T11:05:43.813Z,29.65
2022-07-30T11:06:27.113Z,29.78
2022-07-30T11:07:26.107Z,29.80
2022-07-30T11:08:30.959Z,29.84
2022-07-30T11:09:27.081Z,29.81
2022-07-30T11:10:26.145Z,29.83
2022-07-30T11:11:59.333Z,29.87
2022-07-30T11:12:27.048Z,29.87
2022-07-30T11:13:26.047Z,29.92
2022-07-30T11:14:26.105Z,29.95
2022-07-30T11:15:28.091Z,29.86
2022-07-30T11:16:27.010Z,29.98
2022-07-30T11:17:26.010Z,30.02
2022-07-30T11:18:25.993Z,30.08
2022-07-30T11:19:55.373Z,30.11
2022-07-30T11:20:26.964Z,29.96
2022-07-30T11:21:25.961Z,30.03
2022-07-30T11:22:25.952Z,30.07
2022-07-30T11:23:25.936Z,30.11
2022-07-30T11:24:25.970Z,30.20
2022-07-30T11:25:25.908Z,30.14
2022-07-30T11:26:26.899Z,30.17
2022-07-30T11:27:25.896Z,30.24
2022-07-30T11:28:25.877Z,30.21
2022-07-30T11:29:33.112Z,30.18
2022-07-30T11:30:26.942Z,30.29
2022-07-30T11:31:37.326Z,30.18
2022-07-30T11:32:26.836Z,30.20
2022-07-30T11:33:32.060Z,30.24
2022-07-30T11:34:26.822Z,30.26
2022-07-30T11:35:25.840Z,30.39
2022-07-30T11:36:26.802Z,30.36
2022-07-30T11:37:31.778Z,30.43
2022-07-30T11:38:26.777Z,30.55
2022-07-30T11:39:38.610Z,30.55
2022-07-30T11:40:26.794Z,30.55
2022-07-30T11:41:25.743Z,30.64
2022-07-30T11:42:25.734Z,30.67
2022-07-30T11:43:35.175Z,30.62
2022-07-30T11:44:26.736Z,30.62
2022-07-30T11:45:25.701Z,30.68
2022-07-30T11:46:29.147Z,30.85
2022-07-30T11:47:25.683Z,30.85
2022-07-30T11:48:25.669Z,30.82
2022-07-30T11:49:25.786Z,30.95
2022-07-30T11:50:25.647Z,30.89
2022-07-30T11:51:25.639Z,31.01
2022-07-30T11:52:25.628Z,31.10
2022-07-30T11:53:25.623Z,31.07
2022-07-30T11:54:25.637Z,31.12
2022-07-30T11:55:25.613Z,31.24
2022-07-30T11:56:25.582Z,31.17
2022-07-30T11:57:25.572Z,31.37
2022-07-30T11:58:26.564Z,31.44
2022-07-30T11:59:25.593Z,31.51
2022-07-30T12:00:25.542Z,31.51
2022-07-30T12:01:25.536Z,31.59
2022-07-30T12:02:25.525Z,31.59
2022-07-30T12:03:25.513Z,31.66
2022-07-30T12:04:25.531Z,31.64
2022-07-30T12:05:25.492Z,31.67
2022-07-30T12:06:25.487Z,31.75
2022-07-30T12:07:25.472Z,31.91
2022-07-30T12:08:36.171Z,31.91
2022-07-30T12:09:27.504Z,32.01
2022-07-30T12:10:26.714Z,32.04
2022-07-30T12:11:25.435Z,32.14
2022-07-30T12:12:25.419Z,32.14
2022-07-30T12:13:45.303Z,32.24
2022-07-30T12:14:26.404Z,32.19
2022-07-30T12:15:25.430Z,32.27
2022-07-30T12:16:25.375Z,32.33
2022-07-30T12:17:25.368Z,32.39
2022-07-30T12:18:26.765Z,32.42
2022-07-30T12:19:25.349Z,32.42
2022-07-30T12:20:25.365Z,32.51
2022-07-30T12:21:25.324Z,32.57
2022-07-30T12:22:25.314Z,32.64
2022-07-30T12:23:25.308Z,32.65
2022-07-30T12:24:25.339Z,32.75
2022-07-30T12:25:25.280Z,32.75
2022-07-30T12:26:26.670Z,32.73
2022-07-30T12:27:25.262Z,32.87
2022-07-30T12:28:25.252Z,32.87
2022-07-30T12:29:25.276Z,32.97
2022-07-30T12:30:25.230Z,33.01
2022-07-30T12:31:25.227Z,33.01
2022-07-30T12:32:25.209Z,32.97
2022-07-30T12:33:25.197Z,33.24
2022-07-30T12:34:25.227Z,33.17
2022-07-30T12:35:25.180Z,33.27
2022-07-30T12:36:25.166Z,33.32
2022-07-30T12:37:25.159Z,33.30
2022-07-30T12:38:25.149Z,33.41
2022-07-30T12:39:25.194Z,33.47
2022-07-30T12:40:25.130Z,33.55
2022-07-30T12:41:25.119Z,33.44
2022-07-30T12:42:25.118Z,33.57
2022-07-30T12:43:25.096Z,33.63
2022-07-30T12:44:25.116Z,33.57
2022-07-30T12:45:25.077Z,33.67
2022-07-30T12:46:25.067Z,33.64
2022-07-30T12:47:25.056Z,33.74
2022-07-30T12:48:25.045Z,33.76
2022-07-30T12:49:25.130Z,33.78
2022-07-30T12:50:26.029Z,33.88
2022-07-30T12:51:25.017Z,33.93
2022-07-30T12:52:28.396Z,33.86
2022-07-30T12:53:24.997Z,33.97